createdAt,value
2018-04-18T00:00:05.615Z,990.80
2018-04-18T00:01:06.213Z,990.91
2018-04-18T00:02:05.877Z,991.00
2018-04-18T00:03:05.941Z,990.94
2018-04-18T00:04:07.483Z,991.00
2018-04-18T00:05:06.727Z,990.94
2018-04-18T00:06:06.888Z,990.89
2018-04-18T00:07:05.928Z,991.00
2018-04-18T00:08:06.681Z,991.06
2018-04-18T00:09:06.868Z,991.09
2018-04-18T00:10:09.979Z,991.06
2018-04-18T00:11:05.985Z,991.06
2018-04-18T00:12:06.254Z,991.09
2018-04-18T00:13:05.959Z,991.09
2018-04-18T00:14:06.574Z,991.00
2018-04-18T00:15:05.516Z,990.95
2018-04-18T00:16:07.521Z,991.12
2018-04-18T00:17:06.219Z,990.95
2018-04-18T00:18:07.512Z,991.06
2018-04-18T00:19:05.567Z,990.95
2018-04-18T00:20:06.187Z,991.00
2018-04-18T00:21:07.051Z,991.06
2018-04-18T00:22:10.945Z,991.00
2018-04-18T00:23:06.549Z,991.09
2018-04-18T00:24:06.289Z,991.06
2018-04-18T00:25:06.240Z,991.03
2018-04-18T00:26:10.319Z,990.98
2018-04-18T00:27:06.287Z,991.06
2018-04-18T00:28:05.619Z,991.09
2018-04-18T00:29:06.633Z,990.95
2018-04-18T00:30:06.676Z,990.95
2018-04-18T00:31:05.731Z,991.09
2018-04-18T00:32:06.938Z,991.07
2018-04-18T00:33:10.761Z,991.01
2018-04-18T00:34:06.151Z,990.89
2018-04-18T00:35:06.968Z,991.12
2018-04-18T00:36:05.976Z,990.98
2018-04-18T00:37:06.920Z,990.98
2018-04-18T00:38:05.629Z,991.12
2018-04-18T00:39:10.866Z,991.15
2018-04-18T00:40:06.652Z,991.13
2018-04-18T00:41:15.390Z,991.07
2018-04-18T00:42:06.003Z,991.24
2018-04-18T00:43:06.176Z,991.13
2018-04-18T00:44:05.752Z,991.13
2018-04-18T00:45:07.591Z,991.13
2018-04-18T00:46:07.575Z,991.15
2018-04-18T00:47:07.008Z,991.15
2018-04-18T00:48:05.596Z,991.01
2018-04-18T00:49:10.527Z,990.90
2018-04-18T00:50:06.932Z,990.96
2018-04-18T00:51:06.790Z,991.04
2018-04-18T00:52:06.107Z,991.18
2018-04-18T00:53:06.261Z,991.10
2018-04-18T00:54:06.878Z,991.07
2018-04-18T00:55:06.032Z,990.93
2018-04-18T00:56:06.680Z,990.99
2018-04-18T00:57:06.318Z,990.99
2018-04-18T00:58:06.369Z,991.04
2018-04-18T00:59:06.347Z,990.93
2018-04-18T01:00:06.292Z,991.10
2018-04-18T01:01:05.944Z,991.02
2018-04-18T01:02:05.645Z,991.10
2018-04-18T01:03:06.567Z,990.96
2018-04-18T01:04:05.600Z,991.02
2018-04-18T01:05:05.989Z,991.02
2018-04-18T01:06:05.648Z,991.02
2018-04-18T01:07:06.704Z,991.19
2018-04-18T01:08:09.222Z,991.04
2018-04-18T01:09:10.558Z,991.02
2018-04-18T01:10:06.297Z,990.99
2018-04-18T01:11:05.717Z,991.05
2018-04-18T01:12:05.312Z,990.96
2018-04-18T01:13:05.630Z,990.99
2018-04-18T01:14:06.090Z,991.05
2018-04-18T01:15:08.149Z,990.96
2018-04-18T01:16:06.688Z,991.02
2018-04-18T01:17:06.203Z,990.91
2018-04-18T01:18:05.399Z,991.05
2018-04-18T01:19:06.046Z,990.99
2018-04-18T01:20:06.752Z,990.99
2018-04-18T01:21:10.338Z,991.05
2018-04-18T01:22:06.628Z,991.08
2018-04-18T01:23:06.590Z,990.99
2018-04-18T01:24:06.459Z,990.99
2018-04-18T01:25:06.681Z,990.97
2018-04-18T01:26:05.392Z,991.05
2018-04-18T01:27:06.651Z,991.17
2018-04-18T01:28:05.408Z,990.97
2018-04-18T01:29:06.107Z,990.97
2018-04-18T01:30:06.044Z,991.00
2018-04-18T01:31:06.951Z,991.05
2018-04-18T01:32:05.959Z,990.97
2018-04-18T01:33:06.658Z,991.11
2018-04-18T01:34:05.980Z,991.05
2018-04-18T01:35:06.153Z,991.11
2018-04-18T01:36:07.367Z,991.05
2018-04-18T01:37:06.045Z,991.22
2018-04-18T01:38:05.469Z,991.11
2018-04-18T01:39:06.773Z,991.14
2018-04-18T01:40:05.616Z,990.97
2018-04-18T01:41:06.237Z,991.00
2018-04-18T01:42:06.016Z,991.08
2018-04-18T01:43:06.286Z,991.14
2018-04-18T01:44:06.634Z,990.94
2018-04-18T01:45:08.108Z,991.03
2018-04-18T01:46:06.337Z,991.11
2018-04-18T01:47:10.081Z,990.97
2018-04-18T01:48:06.728Z,991.03
2018-04-18T01:49:05.673Z,991.08
2018-04-18T01:50:06.349Z,991.00
2018-04-18T01:51:06.389Z,991.14
2018-04-18T01:52:10.966Z,990.89
2018-04-18T01:53:06.031Z,990.94
2018-04-18T01:54:06.868Z,991.00
2018-04-18T01:55:10.366Z,991.11
2018-04-18T01:56:07.178Z,990.97
2018-04-18T01:57:06.931Z,991.00
2018-04-18T01:58:06.936Z,990.89
2018-04-18T01:59:10.912Z,990.97
2018-04-18T02:00:05.747Z,990.89
2018-04-18T02:01:07.023Z,991.00
2018-04-18T02:02:05.628Z,990.91
2018-04-18T02:03:11.651Z,990.94
2018-04-18T02:04:06.984Z,990.91
2018-04-18T02:05:06.732Z,991.00
2018-04-18T02:06:06.713Z,991.00
2018-04-18T02:07:06.647Z,990.97
2018-04-18T02:08:07.112Z,991.03
2018-04-18T02:09:06.996Z,990.89
2018-04-18T02:10:06.386Z,991.06
2018-04-18T02:11:06.730Z,991.03
2018-04-18T02:12:06.073Z,990.95
2018-04-18T02:13:06.090Z,991.12
2018-04-18T02:14:06.939Z,990.95
2018-04-18T02:15:06.246Z,990.95
2018-04-18T02:16:06.121Z,991.20
2018-04-18T02:17:06.671Z,991.06
2018-04-18T02:18:06.628Z,990.95
2018-04-18T02:19:11.052Z,991.12
2018-04-18T02:20:06.624Z,991.00
2018-04-18T02:21:06.271Z,991.18
2018-04-18T02:22:05.712Z,991.06
2018-04-18T02:23:06.380Z,991.09
2018-04-18T02:24:10.429Z,991.20
2018-04-18T02:25:06.722Z,991.01
2018-04-18T02:26:06.061Z,991.03
2018-04-18T02:27:05.771Z,991.06
2018-04-18T02:28:06.128Z,991.15
2018-04-18T02:29:06.760Z,991.21
2018-04-18T02:30:05.771Z,991.15
2018-04-18T02:31:07.071Z,991.01
2018-04-18T02:32:05.973Z,991.09
2018-04-18T02:33:06.079Z,991.09
2018-04-18T02:34:06.062Z,991.12
2018-04-18T02:35:05.413Z,991.15
2018-04-18T02:36:06.091Z,991.06
2018-04-18T02:37:06.790Z,991.09
2018-04-18T02:38:10.830Z,991.09
2018-04-18T02:39:06.399Z,991.21
2018-04-18T02:40:06.796Z,991.09
2018-04-18T02:41:06.384Z,991.12
2018-04-18T02:42:06.543Z,991.10
2018-04-18T02:43:06.075Z,991.12
2018-04-18T02:44:06.719Z,991.04
2018-04-18T02:45:06.466Z,990.93
2018-04-18T02:46:05.714Z,991.15
2018-04-18T02:47:06.072Z,991.13
2018-04-18T02:48:06.378Z,991.32
2018-04-18T02:49:06.098Z,991.21
2018-04-18T02:50:10.327Z,991.10
2018-04-18T02:51:06.107Z,991.10
2018-04-18T02:52:06.190Z,991.24
2018-04-18T02:53:06.094Z,991.24
2018-04-18T02:54:05.987Z,991.18
2018-04-18T02:55:06.188Z,991.15
2018-04-18T02:56:06.264Z,991.01
2018-04-18T02:57:06.404Z,991.15
2018-04-18T02:58:06.854Z,991.15
2018-04-18T02:59:05.755Z,991.10
2018-04-18T03:00:06.420Z,991.21
2018-04-18T03:01:06.864Z,991.13
2018-04-18T03:02:06.949Z,991.10
2018-04-18T03:03:05.733Z,991.13
2018-04-18T03:04:06.161Z,991.16
2018-04-18T03:05:05.981Z,991.04
2018-04-18T03:06:09.950Z,990.99
2018-04-18T03:07:06.788Z,991.21
2018-04-18T03:08:05.744Z,991.16
2018-04-18T03:09:07.320Z,991.10
2018-04-18T03:10:06.405Z,991.18
2018-04-18T03:11:06.309Z,991.13
2018-04-18T03:12:06.417Z,991.16
2018-04-18T03:13:10.492Z,991.18
2018-04-18T03:14:07.155Z,991.07
2018-04-18T03:15:05.257Z,991.10
2018-04-18T03:16:07.160Z,991.13
2018-04-18T03:17:06.129Z,991.21
2018-04-18T03:18:06.380Z,991.21
2018-04-18T03:19:06.721Z,991.21
2018-04-18T03:20:05.247Z,991.19
2018-04-18T03:21:05.807Z,991.13
2018-04-18T03:22:06.759Z,991.24
2018-04-18T03:23:06.137Z,991.19
2018-04-18T03:24:06.131Z,991.19
2018-04-18T03:25:05.716Z,991.19
2018-04-18T03:26:06.099Z,991.07
2018-04-18T03:27:05.827Z,991.07
2018-04-18T03:28:06.437Z,991.10
2018-04-18T03:29:05.742Z,991.27
2018-04-18T03:30:10.785Z,991.19
2018-04-18T03:31:05.862Z,991.13
2018-04-18T03:32:06.114Z,991.27
2018-04-18T03:33:06.935Z,991.33
2018-04-18T03:34:06.457Z,991.16
2018-04-18T03:35:05.667Z,991.30
2018-04-18T03:36:06.101Z,991.24
2018-04-18T03:37:05.431Z,991.30
2018-04-18T03:38:06.199Z,991.36
2018-04-18T03:39:06.448Z,991.16
2018-04-18T03:40:06.734Z,991.33
2018-04-18T03:41:06.396Z,991.30
2018-04-18T03:42:05.909Z,991.30
2018-04-18T03:43:05.198Z,991.22
2018-04-18T03:44:06.351Z,991.30
2018-04-18T03:45:06.143Z,991.33
2018-04-18T03:46:06.468Z,991.47
2018-04-18T03:47:10.827Z,991.30
2018-04-18T03:48:05.797Z,991.33
2018-04-18T03:49:07.088Z,991.39
2018-04-18T03:50:06.211Z,991.45
2018-04-18T03:51:06.483Z,991.39
2018-04-18T03:52:06.833Z,991.36
2018-04-18T03:53:06.366Z,991.39
2018-04-18T03:54:05.981Z,991.36
2018-04-18T03:55:05.739Z,991.42
2018-04-18T03:56:06.343Z,991.36
2018-04-18T03:57:06.481Z,991.33
2018-04-18T03:58:05.806Z,991.45
2018-04-18T03:59:06.207Z,991.42
2018-04-18T04:00:06.482Z,991.49
2018-04-18T04:01:05.846Z,991.52
2018-04-18T04:02:05.792Z,991.36
2018-04-18T04:03:06.197Z,991.55
2018-04-18T04:04:07.117Z,991.49
2018-04-18T04:05:07.145Z,991.58
2018-04-18T04:06:05.479Z,991.55
2018-04-18T04:07:05.778Z,991.50
2018-04-18T04:08:07.379Z,991.47
2018-04-18T04:09:05.765Z,991.47
2018-04-18T04:10:07.190Z,991.39
2018-04-18T04:11:07.292Z,991.58
2018-04-18T04:12:06.062Z,991.52
2018-04-18T04:13:06.811Z,991.67
2018-04-18T04:14:06.561Z,991.47
2018-04-18T04:15:06.218Z,991.47
2018-04-18T04:16:06.637Z,991.42
2018-04-18T04:17:05.955Z,991.39
2018-04-18T04:18:05.752Z,991.55
2018-04-18T04:19:06.174Z,991.45
2018-04-18T04:20:07.923Z,991.53
2018-04-18T04:21:06.457Z,991.55
2018-04-18T04:22:06.148Z,991.45
2018-04-18T04:23:06.471Z,991.50
2018-04-18T04:24:06.629Z,991.42
2018-04-18T04:25:07.186Z,991.55
2018-04-18T04:26:06.521Z,991.50
2018-04-18T04:27:07.150Z,991.58
2018-04-18T04:28:05.824Z,991.55
2018-04-18T04:29:06.215Z,991.50
2018-04-18T04:30:11.028Z,991.42
2018-04-18T04:31:06.603Z,991.47
2018-04-18T04:32:05.869Z,991.58
2018-04-18T04:33:06.116Z,991.55
2018-04-18T04:34:06.038Z,991.61
2018-04-18T04:35:05.201Z,991.67
2018-04-18T04:36:05.858Z,991.52
2018-04-18T04:37:07.461Z,991.72
2018-04-18T04:38:05.298Z,991.69
2018-04-18T04:39:08.620Z,991.64
2018-04-18T04:40:10.834Z,991.67
2018-04-18T04:41:10.862Z,991.64
2018-04-18T04:42:06.198Z,991.69
2018-04-18T04:43:05.806Z,991.72
2018-04-18T04:44:05.828Z,991.72
2018-04-18T04:45:05.613Z,991.78
2018-04-18T04:46:06.789Z,991.69
2018-04-18T04:47:05.822Z,991.78
2018-04-18T04:48:06.139Z,991.78
2018-04-18T04:49:05.981Z,991.75
2018-04-18T04:50:05.851Z,991.78
2018-04-18T04:51:06.141Z,991.80
2018-04-18T04:52:05.803Z,991.77
2018-04-18T04:53:06.529Z,991.89
2018-04-18T04:54:07.208Z,991.80
2018-04-18T04:55:05.884Z,991.80
2018-04-18T04:56:07.298Z,991.86
2018-04-18T04:57:06.239Z,991.94
2018-04-18T04:58:06.007Z,991.82
2018-04-18T04:59:06.036Z,991.91
2018-04-18T05:00:05.554Z,991.91
2018-04-18T05:01:06.888Z,991.90
2018-04-18T05:02:06.168Z,991.99
2018-04-18T05:03:06.350Z,991.82
2018-04-18T05:04:07.290Z,991.96
2018-04-18T05:05:05.534Z,991.93
2018-04-18T05:06:15.623Z,991.92
2018-04-18T05:07:06.902Z,991.98
2018-04-18T05:08:05.950Z,991.95
2018-04-18T05:09:06.211Z,991.95
2018-04-18T05:10:06.504Z,991.89
2018-04-18T05:11:06.541Z,991.83
2018-04-18T05:12:05.552Z,991.91
2018-04-18T05:13:06.469Z,991.97
2018-04-18T05:14:06.481Z,991.99
2018-04-18T05:15:05.911Z,992.08
2018-04-18T05:16:07.874Z,991.99
2018-04-18T05:17:05.908Z,992.13
2018-04-18T05:18:05.916Z,992.07
2018-04-18T05:19:05.876Z,992.18
2018-04-18T05:20:05.630Z,992.01
2018-04-18T05:21:06.842Z,992.21
2018-04-18T05:22:10.904Z,992.12
2018-04-18T05:23:05.879Z,992.18
2018-04-18T05:24:05.741Z,992.32
2018-04-18T05:25:06.283Z,992.23
2018-04-18T05:26:06.170Z,992.17
2018-04-18T05:27:06.532Z,992.17
2018-04-18T05:28:05.884Z,992.31
2018-04-18T05:29:08.376Z,992.19
2018-04-18T05:30:06.513Z,992.33
2018-04-18T05:31:05.896Z,992.36
2018-04-18T05:32:05.816Z,992.21
2018-04-18T05:33:06.578Z,992.33
2018-04-18T05:34:10.295Z,992.38
2018-04-18T05:35:06.392Z,992.32
2018-04-18T05:36:06.719Z,992.29
2018-04-18T05:37:06.241Z,992.32
2018-04-18T05:38:06.388Z,992.37
2018-04-18T05:39:05.326Z,992.40
2018-04-18T05:40:06.720Z,992.49
2018-04-18T05:41:05.561Z,992.51
2018-04-18T05:42:06.431Z,992.57
2018-04-18T05:43:06.262Z,992.48
2018-04-18T05:44:05.942Z,992.45
2018-04-18T05:45:07.047Z,992.39
2018-04-18T05:46:05.727Z,992.50
2018-04-18T05:47:05.891Z,992.47
2018-04-18T05:48:05.362Z,992.44
2018-04-18T05:49:07.256Z,992.33
2018-04-18T05:50:06.715Z,992.55
2018-04-18T05:51:06.345Z,992.52
2018-04-18T05:52:07.448Z,992.49
2018-04-18T05:53:12.881Z,992.55
2018-04-18T05:54:07.271Z,992.55
2018-04-18T05:55:06.595Z,992.63
2018-04-18T05:56:06.672Z,992.43
2018-04-18T05:57:06.958Z,992.55
2018-04-18T05:58:06.576Z,992.43
2018-04-18T05:59:06.482Z,992.49
2018-04-18T06:00:06.935Z,992.54
2018-04-18T06:01:05.846Z,992.63
2018-04-18T06:02:05.969Z,992.66
2018-04-18T06:03:06.367Z,992.60
2018-04-18T06:04:10.277Z,992.63
2018-04-18T06:05:08.299Z,992.65
2018-04-18T06:06:07.236Z,992.65
2018-04-18T06:07:07.167Z,992.74
2018-04-18T06:08:06.767Z,992.59
2018-04-18T06:09:07.162Z,992.74
2018-04-18T06:10:06.835Z,992.59
2018-04-18T06:11:06.198Z,992.73
2018-04-18T06:12:06.499Z,992.73
2018-04-18T06:13:07.524Z,992.79
2018-04-18T06:14:06.953Z,992.62
2018-04-18T06:15:10.635Z,992.73
2018-04-18T06:16:06.226Z,992.59
2018-04-18T06:17:06.663Z,992.76
2018-04-18T06:18:05.946Z,992.64
2018-04-18T06:19:06.848Z,992.73
2018-04-18T06:20:06.524Z,992.61
2018-04-18T06:21:06.473Z,992.70
2018-04-18T06:22:05.935Z,992.67
2018-04-18T06:23:07.250Z,992.75
2018-04-18T06:24:05.936Z,992.78
2018-04-18T06:25:06.371Z,992.69
2018-04-18T06:26:05.366Z,992.72
2018-04-18T06:27:05.935Z,992.63
2018-04-18T06:28:06.221Z,992.94
2018-04-18T06:29:06.227Z,992.89
2018-04-18T06:30:06.295Z,992.89
2018-04-18T06:31:06.337Z,992.83
2018-04-18T06:32:10.907Z,992.80
2018-04-18T06:33:06.229Z,992.83
2018-04-18T06:34:05.931Z,992.89
2018-04-18T06:35:06.285Z,992.91
2018-04-18T06:36:05.626Z,992.86
2018-04-18T06:37:06.647Z,992.77
2018-04-18T06:38:06.331Z,992.86
2018-04-18T06:39:06.031Z,992.96
2018-04-18T06:40:05.740Z,992.96
2018-04-18T06:41:06.394Z,992.93
2018-04-18T06:42:05.088Z,992.89
2018-04-18T06:43:06.707Z,992.90
2018-04-18T06:44:06.432Z,992.93
2018-04-18T06:45:05.716Z,992.90
2018-04-18T06:46:06.006Z,992.93
2018-04-18T06:47:06.008Z,992.88
2018-04-18T06:48:07.064Z,992.96
2018-04-18T06:49:07.081Z,993.05
2018-04-18T06:50:06.768Z,992.90
2018-04-18T06:51:07.002Z,993.04
2018-04-18T06:52:06.912Z,992.98
2018-04-18T06:53:06.255Z,992.96
2018-04-18T06:54:06.758Z,992.88
2018-04-18T06:55:05.963Z,993.10
2018-04-18T06:56:06.807Z,993.07
2018-04-18T06:57:07.354Z,993.10
2018-04-18T06:58:05.950Z,993.16
2018-04-18T06:59:06.006Z,993.07
2018-04-18T07:00:07.184Z,993.04
2018-04-18T07:01:11.047Z,993.10
2018-04-18T07:02:06.457Z,993.19
2018-04-18T07:03:07.555Z,993.10
2018-04-18T07:04:05.959Z,993.16
2018-04-18T07:05:06.623Z,993.16
2018-04-18T07:06:06.909Z,993.18
2018-04-18T07:07:05.967Z,993.13
2018-04-18T07:08:05.958Z,993.12
2018-04-18T07:09:05.671Z,993.12
2018-04-18T07:10:06.041Z,993.10
2018-04-18T07:11:05.728Z,993.09
2018-04-18T07:12:07.089Z,993.04
2018-04-18T07:13:06.363Z,993.15
2018-04-18T07:14:11.323Z,992.98
2018-04-18T07:15:06.039Z,993.18
2018-04-18T07:16:06.538Z,993.09
2018-04-18T07:17:06.707Z,993.15
2018-04-18T07:18:06.448Z,993.15
2018-04-18T07:19:06.352Z,993.18
2018-04-18T07:20:07.295Z,993.15
2018-04-18T07:21:10.370Z,993.18
2018-04-18T07:22:07.445Z,993.00
2018-04-18T07:23:06.023Z,993.12
2018-04-18T07:24:06.410Z,993.06
2018-04-18T07:25:08.830Z,993.15
2018-04-18T07:26:09.703Z,993.12
2018-04-18T07:27:07.093Z,993.18
2018-04-18T07:28:06.409Z,993.09
2018-04-18T07:29:06.573Z,993.31
2018-04-18T07:30:10.251Z,993.18
2018-04-18T07:31:05.450Z,993.23
2018-04-18T07:32:07.075Z,993.26
2018-04-18T07:33:10.727Z,993.17
2018-04-18T07:34:07.212Z,993.20
2018-04-18T07:35:06.003Z,993.09
2018-04-18T07:36:06.357Z,993.26
2018-04-18T07:37:07.144Z,993.23
2018-04-18T07:38:06.048Z,993.28
2018-04-18T07:39:07.152Z,993.26
2018-04-18T07:40:06.106Z,993.20
2018-04-18T07:41:06.473Z,993.17
2018-04-18T07:42:06.046Z,993.17
2018-04-18T07:43:06.738Z,993.26
2018-04-18T07:44:10.718Z,993.26
2018-04-18T07:45:06.404Z,993.31
2018-04-18T07:46:05.831Z,993.31
2018-04-18T07:47:06.167Z,993.33
2018-04-18T07:48:06.422Z,993.36
2018-04-18T07:49:06.017Z,993.23
2018-04-18T07:50:05.561Z,993.33
2018-04-18T07:51:06.011Z,993.27
2018-04-18T07:52:06.070Z,993.17
2018-04-18T07:53:06.101Z,993.23
2018-04-18T07:54:07.392Z,993.36
2018-04-18T07:55:05.698Z,993.36
2018-04-18T07:56:06.011Z,993.27
2018-04-18T07:57:05.464Z,993.30
2018-04-18T07:58:06.057Z,993.23
2018-04-18T07:59:05.779Z,993.39
2018-04-18T08:00:07.681Z,993.30
2018-04-18T08:01:07.529Z,993.27
2018-04-18T08:02:07.057Z,993.42
2018-04-18T08:03:06.797Z,993.23
2018-04-18T08:04:08.365Z,993.23
2018-04-18T08:05:06.263Z,993.30
2018-04-18T08:06:07.328Z,993.27
2018-04-18T08:07:08.516Z,993.48
2018-04-18T08:08:06.030Z,993.25
2018-04-18T08:09:05.925Z,993.39
2018-04-18T08:10:06.961Z,993.27
2018-04-18T08:11:05.700Z,993.27
2018-04-18T08:12:05.743Z,993.25
2018-04-18T08:13:06.680Z,993.20
2018-04-18T08:14:08.458Z,993.33
2018-04-18T08:15:07.499Z,993.36
2018-04-18T08:16:06.116Z,993.33
2018-04-18T08:17:06.005Z,993.33
2018-04-18T08:18:05.495Z,993.22
2018-04-18T08:19:06.352Z,993.39
2018-04-18T08:20:07.747Z,993.36
2018-04-18T08:21:10.802Z,993.39
2018-04-18T08:22:07.093Z,993.50
2018-04-18T08:23:07.344Z,993.36
2018-04-18T08:24:11.924Z,993.39
2018-04-18T08:25:07.329Z,993.33
2018-04-18T08:26:07.159Z,993.44
2018-04-18T08:27:05.745Z,993.35
2018-04-18T08:28:06.750Z,993.35
2018-04-18T08:29:07.058Z,993.41
2018-04-18T08:30:06.920Z,993.47
2018-04-18T08:31:06.103Z,993.35
2018-04-18T08:32:07.070Z,993.44
2018-04-18T08:33:10.343Z,993.44
2018-04-18T08:34:05.911Z,993.41
2018-04-18T08:35:06.066Z,993.47
2018-04-18T08:36:06.036Z,993.53
2018-04-18T08:37:06.082Z,993.50
2018-04-18T08:38:05.517Z,993.50
2018-04-18T08:39:11.064Z,993.50
2018-04-18T08:40:05.998Z,993.50
2018-04-18T08:41:06.046Z,993.50
2018-04-18T08:42:05.741Z,993.50
2018-04-18T08:43:06.056Z,993.49
2018-04-18T08:44:05.500Z,993.52
2018-04-18T08:45:10.992Z,993.46
2018-04-18T08:46:06.451Z,993.55
2018-04-18T08:47:06.807Z,993.52
2018-04-18T08:48:07.346Z,993.49
2018-04-18T08:49:06.878Z,993.58
2018-04-18T08:50:05.524Z,993.52
2018-04-18T08:51:06.072Z,993.49
2018-04-18T08:52:05.764Z,993.55
2018-04-18T08:53:06.456Z,993.61
2018-04-18T08:54:06.450Z,993.46
2018-04-18T08:55:06.621Z,993.61
2018-04-18T08:56:06.066Z,993.52
2018-04-18T08:57:05.463Z,993.52
2018-04-18T08:58:06.089Z,993.43
2018-04-18T08:59:06.067Z,993.55
2018-04-18T09:00:07.695Z,993.52
2018-04-18T09:01:07.439Z,993.61
2018-04-18T09:02:08.138Z,993.60
2018-04-18T09:03:07.410Z,993.49
2018-04-18T09:04:07.108Z,993.52
2018-04-18T09:05:06.471Z,993.60
2018-04-18T09:06:07.119Z,993.54
2018-04-18T09:07:05.973Z,993.54
2018-04-18T09:08:06.735Z,993.54
2018-04-18T09:09:05.262Z,993.49
2018-04-18T09:10:06.599Z,993.51
2018-04-18T09:11:06.699Z,993.54
2018-04-18T09:12:06.424Z,993.48
2018-04-18T09:13:05.790Z,993.48
2018-04-18T09:14:07.503Z,993.43
2018-04-18T09:15:06.057Z,993.48
2018-04-18T09:16:06.796Z,993.48
2018-04-18T09:17:06.893Z,993.48
2018-04-18T09:18:07.295Z,993.60
2018-04-18T09:19:11.421Z,993.57
2018-04-18T09:20:05.968Z,993.63
2018-04-18T09:21:06.777Z,993.42
2018-04-18T09:22:11.168Z,993.57
2018-04-18T09:23:05.962Z,993.48
2018-04-18T09:24:05.544Z,993.48
2018-04-18T09:25:06.884Z,993.42
2018-04-18T09:26:05.955Z,993.48
2018-04-18T09:27:05.672Z,993.57
2018-04-18T09:28:06.098Z,993.39
2018-04-18T09:29:08.555Z,993.48
2018-04-18T09:30:05.789Z,993.68
2018-04-18T09:31:06.430Z,993.57
2018-04-18T09:32:06.106Z,993.48
2018-04-18T09:33:08.828Z,993.57
2018-04-18T09:34:06.431Z,993.48
2018-04-18T09:35:06.983Z,993.56
2018-04-18T09:36:07.142Z,993.54
2018-04-18T09:37:07.217Z,993.51
2018-04-18T09:38:07.333Z,993.48
2018-04-18T09:39:07.194Z,993.51
2018-04-18T09:40:06.129Z,993.36
2018-04-18T09:41:10.133Z,993.50
2018-04-18T09:42:06.618Z,993.45
2018-04-18T09:43:06.910Z,993.42
2018-04-18T09:44:05.428Z,993.53
2018-04-18T09:45:06.155Z,993.53
2018-04-18T09:46:06.471Z,993.50
2018-04-18T09:47:06.742Z,993.36
2018-04-18T09:48:06.131Z,993.53
2018-04-18T09:49:06.142Z,993.53
2018-04-18T09:50:06.812Z,993.38
2018-04-18T09:51:05.485Z,993.50
2018-04-18T09:52:06.142Z,993.47
2018-04-18T09:53:07.082Z,993.38
2018-04-18T09:54:06.431Z,993.53
2018-04-18T09:55:07.336Z,993.53
2018-04-18T09:56:05.470Z,993.32
2018-04-18T09:57:07.141Z,993.44
2018-04-18T09:58:05.819Z,993.44
2018-04-18T09:59:06.070Z,993.35
2018-04-18T10:00:07.317Z,993.44
2018-04-18T10:01:10.736Z,993.50
2018-04-18T10:02:05.777Z,993.38
2018-04-18T10:03:07.247Z,993.50
2018-04-18T10:04:06.158Z,993.38
2018-04-18T10:05:07.178Z,993.44
2018-04-18T10:06:06.442Z,993.55
2018-04-18T10:07:06.194Z,993.50
2018-04-18T10:08:06.493Z,993.50
2018-04-18T10:09:06.121Z,993.47
2018-04-18T10:10:06.461Z,993.50
2018-04-18T10:11:11.211Z,993.53
2018-04-18T10:12:06.055Z,993.38
2018-04-18T10:13:05.899Z,993.44
2018-04-18T10:14:07.181Z,993.47
2018-04-18T10:15:06.097Z,993.44
2018-04-18T10:16:06.541Z,993.53
2018-04-18T10:17:07.113Z,993.53
2018-04-18T10:18:07.535Z,993.50
2018-04-18T10:19:05.645Z,993.67
2018-04-18T10:20:07.166Z,993.49
2018-04-18T10:21:05.515Z,993.49
2018-04-18T10:22:06.583Z,993.49
2018-04-18T10:23:06.677Z,993.44
2018-04-18T10:24:06.222Z,993.46
2018-04-18T10:25:07.209Z,993.44
2018-04-18T10:26:06.534Z,993.49
2018-04-18T10:27:06.157Z,993.61
2018-04-18T10:28:06.522Z,993.58
2018-04-18T10:29:06.183Z,993.55
2018-04-18T10:30:05.835Z,993.49
2018-04-18T10:31:07.050Z,993.61
2018-04-18T10:32:06.229Z,993.46
2018-04-18T10:33:05.858Z,993.64
2018-04-18T10:34:07.363Z,993.55
2018-04-18T10:35:08.823Z,993.58
2018-04-18T10:36:05.529Z,993.46
2018-04-18T10:37:05.966Z,993.49
2018-04-18T10:38:07.619Z,993.55
2018-04-18T10:39:06.508Z,993.46
2018-04-18T10:40:05.590Z,993.46
2018-04-18T10:41:05.548Z,993.40
2018-04-18T10:42:05.994Z,993.49
2018-04-18T10:43:06.655Z,993.49
2018-04-18T10:44:05.838Z,993.55
2018-04-18T10:45:07.188Z,993.49
2018-04-18T10:46:07.638Z,993.58
2018-04-18T10:47:06.302Z,993.49
2018-04-18T10:48:06.202Z,993.40
2018-04-18T10:49:06.472Z,993.46
2018-04-18T10:50:06.667Z,993.49
2018-04-18T10:51:06.164Z,993.55
2018-04-18T10:52:10.369Z,993.46
2018-04-18T10:53:05.868Z,993.52
2018-04-18T10:54:06.989Z,993.55
2018-04-18T10:55:05.242Z,993.52
2018-04-18T10:56:06.599Z,993.55
2018-04-18T10:57:06.005Z,993.52
2018-04-18T10:58:05.888Z,993.46
2018-04-18T10:59:05.870Z,993.55
2018-04-18T11:00:07.311Z,993.49
2018-04-18T11:01:10.611Z,993.46
2018-04-18T11:02:06.079Z,993.58
2018-04-18T11:03:06.518Z,993.49
2018-04-18T11:04:11.202Z,993.40
2018-04-18T11:05:07.730Z,993.52
2018-04-18T11:06:07.421Z,993.43
2018-04-18T11:07:06.032Z,993.46
2018-04-18T11:08:10.763Z,993.49
2018-04-18T11:09:06.192Z,993.43
2018-04-18T11:10:06.603Z,993.40
2018-04-18T11:11:06.590Z,993.31
2018-04-18T11:12:06.289Z,993.40
2018-04-18T11:13:07.373Z,993.43
2018-04-18T11:14:05.889Z,993.46
2018-04-18T11:15:05.768Z,993.46
2018-04-18T11:16:06.066Z,993.46
2018-04-18T11:17:05.696Z,993.40
2018-04-18T11:18:11.270Z,993.49
2018-04-18T11:19:06.708Z,993.34
2018-04-18T11:20:07.159Z,993.40
2018-04-18T11:21:06.223Z,993.61
2018-04-18T11:22:06.239Z,993.26
2018-04-18T11:23:11.121Z,993.34
2018-04-18T11:24:05.794Z,993.40
2018-04-18T11:25:05.895Z,993.37
2018-04-18T11:26:06.884Z,993.43
2018-04-18T11:27:05.331Z,993.37
2018-04-18T11:28:05.886Z,993.37
2018-04-18T11:29:06.656Z,993.49
2018-04-18T11:30:06.104Z,993.43
2018-04-18T11:31:07.594Z,993.55
2018-04-18T11:32:06.226Z,993.43
2018-04-18T11:33:05.731Z,993.49
2018-04-18T11:34:07.617Z,993.46
2018-04-18T11:35:06.260Z,993.49
2018-04-18T11:36:05.977Z,993.40
2018-04-18T11:37:05.745Z,993.43
2018-04-18T11:38:06.924Z,993.40
2018-04-18T11:39:10.981Z,993.34
2018-04-18T11:40:05.742Z,993.46
2018-04-18T11:41:06.923Z,993.46
2018-04-18T11:42:06.271Z,993.40
2018-04-18T11:43:06.169Z,993.31
2018-04-18T11:44:10.075Z,993.43
2018-04-18T11:45:05.976Z,993.34
2018-04-18T11:46:05.632Z,993.26
2018-04-18T11:47:05.858Z,993.23
2018-04-18T11:48:05.313Z,993.31
2018-04-18T11:49:06.045Z,993.37
2018-04-18T11:50:06.280Z,993.43
2018-04-18T11:51:06.000Z,993.28
2018-04-18T11:52:06.638Z,993.23
2018-04-18T11:53:06.184Z,993.37
2018-04-18T11:54:07.929Z,993.31
2018-04-18T11:55:07.014Z,993.34
2018-04-18T11:56:06.272Z,993.28
2018-04-18T11:57:06.584Z,993.17
2018-04-18T11:58:07.528Z,993.34
2018-04-18T11:59:06.192Z,993.28
2018-04-18T12:00:05.619Z,993.26
2018-04-18T12:01:10.762Z,993.17
2018-04-18T12:02:06.612Z,993.26
2018-04-18T12:03:07.054Z,993.34
2018-04-18T12:04:11.025Z,993.31
2018-04-18T12:05:05.623Z,993.31
2018-04-18T12:06:06.988Z,993.28
2018-04-18T12:07:11.054Z,993.26
2018-04-18T12:08:07.080Z,993.43
2018-04-18T12:09:05.699Z,993.34
2018-04-18T12:10:05.651Z,993.37
2018-04-18T12:11:06.747Z,993.34
2018-04-18T12:12:11.023Z,993.37
2018-04-18T12:13:07.784Z,993.28
2018-04-18T12:14:07.279Z,993.37
2018-04-18T12:15:11.058Z,993.23
2018-04-18T12:16:06.367Z,993.46
2018-04-18T12:17:06.301Z,993.46
2018-04-18T12:18:06.353Z,993.40
2018-04-18T12:19:06.050Z,993.31
2018-04-18T12:20:05.965Z,993.34
2018-04-18T12:21:11.356Z,993.37
2018-04-18T12:22:10.405Z,993.37
2018-04-18T12:23:07.481Z,993.46
2018-04-18T12:24:05.360Z,993.28
2018-04-18T12:25:05.727Z,993.28
2018-04-18T12:26:07.769Z,993.43
2018-04-18T12:27:07.486Z,993.34
2018-04-18T12:28:07.058Z,993.34